createdAt,value
2023-05-12T00:01:17.030Z,45.26
2023-05-12T00:04:19.622Z,45.58
2023-05-12T00:07:22.587Z,45.24
2023-05-12T00:10:27.464Z,45.46
2023-05-12T00:13:30.264Z,45.52
2023-05-12T00:16:33.108Z,45.71
2023-05-12T00:19:36.676Z,46.17
2023-05-12T00:22:40.276Z,45.95
2023-05-12T00:25:42.937Z,45.85
2023-05-12T00:28:47.616Z,45.93
2023-05-12T00:31:50.301Z,46.39
2023-05-12T00:34:54.506Z,46.24
2023-05-12T00:37:57.225Z,46.37
2023-05-12T00:40:59.876Z,46.35
2023-05-12T00:44:02.448Z,46.31
2023-05-12T00:47:05.277Z,46.20
2023-05-12T00:50:08.694Z,46.34
2023-05-12T00:53:12.992Z,46.48
2023-05-12T00:56:17.965Z,46.64
2023-05-12T00:59:20.762Z,46.78
2023-05-12T01:02:23.984Z,46.73
2023-05-12T01:05:32.112Z,46.71
2023-05-12T01:08:35.198Z,46.75
2023-05-12T01:11:38.098Z,46.81
2023-05-12T01:14:41.556Z,47.02
2023-05-12T01:17:53.891Z,46.71
2023-05-12T01:20:57.311Z,47.15
2023-05-12T01:24:06.530Z,47.02
2023-05-12T01:27:10.118Z,46.90
2023-05-12T01:30:16.616Z,47.18
2023-05-12T01:33:19.350Z,47.44
2023-05-12T01:36:21.896Z,47.26
2023-05-12T01:39:24.466Z,47.49
2023-05-12T01:42:27.031Z,47.22
2023-05-12T01:45:29.687Z,47.14
2023-05-12T01:48:32.357Z,47.15
2023-05-12T01:51:34.918Z,47.09
2023-05-12T01:54:37.457Z,46.94
2023-05-12T01:57:40.040Z,47.14
2023-05-12T02:00:42.648Z,47.29
2023-05-12T02:03:45.224Z,47.22
2023-05-12T02:06:47.800Z,47.16
2023-05-12T02:09:51.131Z,47.23
2023-05-12T02:12:53.751Z,47.41
2023-05-12T02:15:56.279Z,47.44
2023-05-12T02:18:58.935Z,47.25
2023-05-12T02:22:01.773Z,47.34
2023-05-12T02:25:04.956Z,47.23
2023-05-12T02:28:10.967Z,47.51
2023-05-12T02:31:13.743Z,47.38
2023-05-12T02:34:16.338Z,47.42
2023-05-12T02:37:19.004Z,47.40
2023-05-12T02:40:21.669Z,47.56
2023-05-12T02:43:24.533Z,47.53
2023-05-12T02:46:27.316Z,47.46
2023-05-12T02:49:30.466Z,47.51
2023-05-12T02:52:32.990Z,47.63
2023-05-12T02:55:35.692Z,47.72
2023-05-12T02:58:38.377Z,47.87
2023-05-12T03:01:41.113Z,47.94
2023-05-12T03:04:43.798Z,47.98
2023-05-12T03:07:48.727Z,47.74
2023-05-12T03:10:51.421Z,47.77
2023-05-12T03:13:54.130Z,47.87
2023-05-12T03:16:57.302Z,47.93
2023-05-12T03:20:00.108Z,47.97
2023-05-12T03:23:03.986Z,48.14
2023-05-12T03:26:06.653Z,48.02
2023-05-12T03:29:09.314Z,48.02
2023-05-12T03:32:11.876Z,48.00
2023-05-12T03:35:14.539Z,48.12
2023-05-12T03:38:17.099Z,48.26
2023-05-12T03:41:19.703Z,48.29
2023-05-12T03:44:22.342Z,48.36
2023-05-12T03:50:27.666Z,48.21
2023-05-12T03:53:30.438Z,48.51
2023-05-12T03:56:33.310Z,48.66
2023-05-12T03:59:35.893Z,48.85
2023-05-12T04:02:38.987Z,48.90
2023-05-12T04:05:42.822Z,49.10
2023-05-12T04:08:45.595Z,49.33
2023-05-12T04:11:48.267Z,49.67
2023-05-12T04:14:51.238Z,49.69
2023-05-12T04:17:53.870Z,50.05
2023-05-12T04:20:56.977Z,50.10
2023-05-12T04:23:59.585Z,50.16
2023-05-12T04:27:02.205Z,50.37
2023-05-12T04:30:05.330Z,50.54
2023-05-12T04:33:08.886Z,50.62
2023-05-12T04:36:13.790Z,50.77
2023-05-12T04:39:16.383Z,50.70
2023-05-12T04:42:19.115Z,51.09
2023-05-12T04:45:22.170Z,50.95
2023-05-12T04:48:25.163Z,50.88
2023-05-12T04:51:27.830Z,50.92
2023-05-12T04:54:39.084Z,51.00
2023-05-12T04:57:41.755Z,50.81
2023-05-12T05:00:44.610Z,50.98
2023-05-12T05:03:47.489Z,50.77
2023-05-12T05:06:50.363Z,50.78
2023-05-12T05:09:52.949Z,50.78
2023-05-12T05:12:55.486Z,50.66
2023-05-12T05:15:58.092Z,50.65
2023-05-12T05:19:05.733Z,50.48
2023-05-12T05:22:09.791Z,50.22
2023-05-12T05:25:13.875Z,50.21
2023-05-12T05:28:17.308Z,49.75
2023-05-12T05:31:19.990Z,49.54
2023-05-12T05:34:22.981Z,49.47
2023-05-12T05:37:25.793Z,49.57
2023-05-12T05:40:30.582Z,49.42
2023-05-12T05:43:36.673Z,49.18
2023-05-12T05:46:39.282Z,49.30
2023-05-12T05:49:42.297Z,49.31
2023-05-12T05:52:44.867Z,49.19
2023-05-12T05:55:48.869Z,49.07
2023-05-12T05:58:51.543Z,49.18
2023-05-12T06:01:54.135Z,49.11
2023-05-12T06:04:56.846Z,49.22
2023-05-12T06:07:59.387Z,49.45
2023-05-12T06:11:01.980Z,49.32
2023-05-12T06:14:04.758Z,49.17
2023-05-12T06:17:07.514Z,48.73
2023-05-12T06:20:10.701Z,48.77
2023-05-12T06:23:13.346Z,48.91
2023-05-12T06:26:16.047Z,48.73
2023-05-12T06:29:19.919Z,48.69
2023-05-12T06:32:22.562Z,48.61
2023-05-12T06:35:25.256Z,48.58
2023-05-12T06:38:27.835Z,48.63
2023-05-12T06:41:30.821Z,48.54
2023-05-12T06:44:33.422Z,48.49
2023-05-12T06:47:36.055Z,48.49
2023-05-12T06:50:38.901Z,48.42
2023-05-12T06:53:41.570Z,48.48
2023-05-12T06:56:44.231Z,48.44
2023-05-12T06:59:46.802Z,48.63
2023-05-12T07:02:49.789Z,48.72
2023-05-12T07:05:52.505Z,48.68
2023-05-12T07:08:55.982Z,48.68
2023-05-12T07:11:59.286Z,48.57
2023-05-12T07:15:01.874Z,48.18
2023-05-12T07:18:04.609Z,48.38
2023-05-12T07:21:07.856Z,48.04
2023-05-12T07:24:10.455Z,47.93
2023-05-12T07:27:13.142Z,47.49
2023-05-12T07:30:16.501Z,47.34
2023-05-12T07:33:18.989Z,47.31
2023-05-12T07:36:22.091Z,47.39
2023-05-12T07:39:25.258Z,47.07
2023-05-12T07:42:28.037Z,47.00
2023-05-12T07:45:30.752Z,46.63
2023-05-12T07:48:40.012Z,46.70
2023-05-12T07:51:44.171Z,46.36
2023-05-12T07:54:46.936Z,46.41
2023-05-12T07:57:49.727Z,46.42
2023-05-12T08:00:54.557Z,46.24
2023-05-12T08:03:57.282Z,45.98
2023-05-12T08:06:59.939Z,45.90
2023-05-12T08:10:04.201Z,45.81
2023-05-12T08:13:06.767Z,45.27
2023-05-12T08:16:09.490Z,45.46
2023-05-12T08:19:13.118Z,45.60
2023-05-12T08:22:16.450Z,44.93
2023-05-12T08:25:19.384Z,44.79
2023-05-12T08:28:22.184Z,44.60
2023-05-12T08:31:24.882Z,44.66
2023-05-12T08:34:28.107Z,44.20
2023-05-12T08:37:33.717Z,44.20
2023-05-12T08:40:54.133Z,43.69
2023-05-12T08:43:57.314Z,43.88
2023-05-12T08:47:01.473Z,43.72
2023-05-12T08:50:05.605Z,43.93
2023-05-12T08:53:12.261Z,43.76
2023-05-12T08:59:26.256Z,43.49
2023-05-12T09:02:38.013Z,43.16
2023-05-12T09:05:47.793Z,43.43
2023-05-12T09:08:51.390Z,42.88
2023-05-12T09:11:57.596Z,42.83
2023-05-12T09:15:12.109Z,42.50
2023-05-12T09:18:16.219Z,42.62
2023-05-12T09:21:19.919Z,42.43
2023-05-12T09:24:35.085Z,42.25
2023-05-12T09:27:37.712Z,42.17
2023-05-12T09:30:42.543Z,41.81
2023-05-12T09:33:45.490Z,41.50
2023-05-12T09:37:02.582Z,41.11
2023-05-12T09:40:07.669Z,41.21
2023-05-12T09:43:12.438Z,40.77
2023-05-12T09:46:16.484Z,40.90
2023-05-12T09:49:27.237Z,41.25
2023-05-12T09:52:33.049Z,40.81
2023-05-12T09:55:35.722Z,40.15
2023-05-12T09:58:43.094Z,39.70
2023-05-12T10:01:45.792Z,40.66
2023-05-12T10:05:01.281Z,40.01
2023-05-12T10:08:08.400Z,39.68
2023-05-12T10:11:11.999Z,38.54
2023-05-12T10:14:15.658Z,39.65
2023-05-12T10:17:20.584Z,39.05
2023-05-12T10:20:23.462Z,39.43
2023-05-12T10:23:27.658Z,39.44
2023-05-12T10:26:32.506Z,39.40
2023-05-12T10:29:37.773Z,38.38
2023-05-12T10:32:40.625Z,38.90
2023-05-12T10:35:44.226Z,38.46
2023-05-12T10:38:50.387Z,38.70
2023-05-12T10:42:01.750Z,38.48
2023-05-12T10:45:17.092Z,38.52
2023-05-12T10:48:19.786Z,37.91
2023-05-12T10:51:28.602Z,37.61
2023-05-12T10:54:46.801Z,36.71
2023-05-12T10:57:54.024Z,37.36
2023-05-12T11:01:05.995Z,37.13
2023-05-12T11:04:17.395Z,36.99
2023-05-12T11:07:22.587Z,36.82
2023-05-12T11:10:26.529Z,36.74
2023-05-12T11:13:30.530Z,36.93
2023-05-12T11:16:33.192Z,36.05
2023-05-12T11:19:37.178Z,35.73
2023-05-12T11:22:41.179Z,35.81
2023-05-12T11:25:44.780Z,35.53
2023-05-12T11:28:47.834Z,35.14
2023-05-12T11:31:51.755Z,35.55
2023-05-12T11:34:54.721Z,34.33
2023-05-12T11:37:57.267Z,34.73
2023-05-12T11:40:59.833Z,34.06
2023-05-12T11:44:16.720Z,34.36
2023-05-12T11:47:20.148Z,34.44
2023-05-12T11:50:24.571Z,34.54
2023-05-12T11:53:27.755Z,34.29
2023-05-12T11:56:30.644Z,34.23
2023-05-12T11:59:34.856Z,33.66
2023-05-12T12:02:39.842Z,34.22
2023-05-12T12:05:46.565Z,34.12
2023-05-12T12:08:53.085Z,33.41
2023-05-12T12:11:56.142Z,33.33
2023-05-12T12:15:00.491Z,33.12
2023-05-12T12:18:03.267Z,33.30
2023-05-12T12:21:06.024Z,33.54
2023-05-12T12:24:08.610Z,33.85
2023-05-12T12:27:11.226Z,33.12
2023-05-12T12:30:17.154Z,33.08
2023-05-12T12:33:21.365Z,32.73
2023-05-12T12:36:24.137Z,33.65
2023-05-12T12:39:27.203Z,33.63
2023-05-12T12:42:30.088Z,33.66
2023-05-12T12:45:33.061Z,32.45
2023-05-12T12:48:35.651Z,32.41
2023-05-12T12:51:45.642Z,32.78
2023-05-12T12:54:49.540Z,32.91
2023-05-12T12:57:52.100Z,32.69
2023-05-12T13:00:54.691Z,33.06
2023-05-12T13:03:57.565Z,33.18
2023-05-12T13:07:00.396Z,33.26
2023-05-12T13:10:04.056Z,33.14
2023-05-12T13:13:07.317Z,33.38
2023-05-12T13:16:09.932Z,33.16
2023-05-12T13:19:12.634Z,33.24
2023-05-12T13:22:15.465Z,33.08
2023-05-12T13:25:18.310Z,33.04
2023-05-12T13:28:21.216Z,33.60
2023-05-12T13:31:24.001Z,34.21
2023-05-12T13:34:26.824Z,34.15
2023-05-12T13:37:29.477Z,33.50
2023-05-12T13:40:32.478Z,33.61
2023-05-12T13:43:35.041Z,33.35
2023-05-12T13:46:37.698Z,33.27
2023-05-12T13:49:40.356Z,33.65
2023-05-12T13:52:43.233Z,33.61
2023-05-12T13:55:45.919Z,33.44
2023-05-12T13:58:48.579Z,33.54
2023-05-12T14:01:51.280Z,33.36
2023-05-12T14:04:53.953Z,33.81
2023-05-12T14:07:56.987Z,33.62
2023-05-12T14:10:59.758Z,32.89
2023-05-12T14:14:03.638Z,32.94
2023-05-12T14:17:06.499Z,32.55
2023-05-12T14:20:09.664Z,32.24
2023-05-12T14:23:12.526Z,32.71
2023-05-12T14:26:15.422Z,32.27
2023-05-12T14:29:17.922Z,32.64
2023-05-12T14:32:20.562Z,32.71
2023-05-12T14:35:27.700Z,32.82
2023-05-12T14:38:30.592Z,33.00
2023-05-12T14:41:33.178Z,32.27
2023-05-12T14:44:35.813Z,31.14
2023-05-12T14:47:38.433Z,31.12
2023-05-12T14:50:43.710Z,31.20
2023-05-12T14:53:46.279Z,31.21
2023-05-12T14:56:48.787Z,30.98
2023-05-12T14:59:54.440Z,31.01
2023-05-12T15:02:57.185Z,30.31
2023-05-12T15:09:05.745Z,30.09
2023-05-12T15:12:08.916Z,28.88
2023-05-12T15:15:12.231Z,28.14
2023-05-12T15:18:14.957Z,28.70
2023-05-12T15:21:17.729Z,28.58
2023-05-12T15:24:20.796Z,29.48
2023-05-12T15:27:23.817Z,29.21
2023-05-12T15:30:26.454Z,29.25
2023-05-12T15:33:30.440Z,29.04
2023-05-12T15:36:34.169Z,28.61
2023-05-12T15:39:36.912Z,28.34
2023-05-12T15:42:40.589Z,28.43
2023-05-12T15:45:43.155Z,28.11
2023-05-12T15:48:49.084Z,28.14
2023-05-12T15:51:51.654Z,27.53
2023-05-12T15:54:54.390Z,26.92
2023-05-12T15:57:57.498Z,27.51
2023-05-12T16:01:00.417Z,28.03
2023-05-12T16:04:03.416Z,28.41
2023-05-12T16:07:06.405Z,27.96
2023-05-12T16:10:09.618Z,26.70
2023-05-12T16:13:12.353Z,27.87
2023-05-12T16:16:14.990Z,27.93
2023-05-12T16:19:18.180Z,27.64
2023-05-12T16:22:21.065Z,27.53
2023-05-12T16:25:23.980Z,26.46
2023-05-12T16:28:27.118Z,26.71
2023-05-12T16:31:31.296Z,27.26
2023-05-12T16:34:33.982Z,26.79
2023-05-12T16:37:36.947Z,27.12
2023-05-12T16:40:40.053Z,27.24
2023-05-12T16:43:42.722Z,27.84
2023-05-12T16:46:45.414Z,27.81
2023-05-12T16:49:53.432Z,28.25
2023-05-12T16:52:56.336Z,28.35
2023-05-12T16:55:59.554Z,28.84
2023-05-12T16:59:02.152Z,28.89
2023-05-12T17:02:05.269Z,28.98
2023-05-12T17:05:08.500Z,29.41
2023-05-12T17:08:11.402Z,29.59
2023-05-12T17:11:14.063Z,29.97
2023-05-12T17:14:17.894Z,29.65
2023-05-12T17:17:21.836Z,29.74
2023-05-12T17:20:24.497Z,29.25
2023-05-12T17:23:28.298Z,29.56
2023-05-12T17:26:31.175Z,29.76
2023-05-12T17:29:34.144Z,29.76
2023-05-12T17:32:36.718Z,29.97
2023-05-12T17:35:39.544Z,30.11
2023-05-12T17:38:42.263Z,30.08
2023-05-12T17:41:44.889Z,29.98
2023-05-12T17:44:47.651Z,30.35
2023-05-12T17:47:50.880Z,30.29
2023-05-12T17:50:53.603Z,30.28
2023-05-12T17:53:56.699Z,30.37
2023-05-12T17:56:59.454Z,30.43
2023-05-12T18:00:06.500Z,30.46
2023-05-12T18:03:09.336Z,30.77
2023-05-12T18:06:12.961Z,30.88
2023-05-12T18:09:17.759Z,31.06
2023-05-12T18:12:20.855Z,31.21
2023-05-12T18:15:24.622Z,31.22
2023-05-12T18:18:27.273Z,31.47
2023-05-12T18:21:30.086Z,31.48
2023-05-12T18:24:32.712Z,31.73
2023-05-12T18:27:36.120Z,31.91
2023-05-12T18:30:38.953Z,32.26
2023-05-12T18:33:41.689Z,32.41
2023-05-12T18:36:44.546Z,32.48
2023-05-12T18:39:47.170Z,32.71
2023-05-12T18:42:50.891Z,32.93
2023-05-12T18:45:53.558Z,33.04
2023-05-12T18:48:56.208Z,33.19
2023-05-12T18:51:58.893Z,33.45
2023-05-12T18:55:01.457Z,33.69
2023-05-12T18:58:03.977Z,33.77
2023-05-12T19:01:06.951Z,33.82
2023-05-12T19:04:10.021Z,33.88
2023-05-12T19:07:15.514Z,34.06
2023-05-12T19:10:18.241Z,34.26
2023-05-12T19:13:20.893Z,34.27
2023-05-12T19:16:26.466Z,34.38
2023-05-12T19:19:29.423Z,34.59
2023-05-12T19:22:32.189Z,34.44
2023-05-12T19:25:35.583Z,34.72
2023-05-12T19:28:38.346Z,34.80
2023-05-12T19:31:41.156Z,34.81
2023-05-12T19:34:44.802Z,34.83
2023-05-12T19:37:47.365Z,34.93
2023-05-12T19:40:49.906Z,35.10
2023-05-12T19:43:52.471Z,35.11
2023-05-12T19:46:55.327Z,35.27
2023-05-12T19:49:57.918Z,35.37
2023-05-12T19:53:00.690Z,35.35
2023-05-12T19:56:03.376Z,35.52
2023-05-12T19:59:05.936Z,35.61
2023-05-12T20:02:14.985Z,35.74
2023-05-12T20:05:17.929Z,35.88
2023-05-12T20:08:20.767Z,36.01
2023-05-12T20:11:23.445Z,36.07
2023-05-12T20:14:26.000Z,36.21
2023-05-12T20:17:28.617Z,36.14
2023-05-12T20:20:31.590Z,36.29
2023-05-12T20:23:34.303Z,36.50
2023-05-12T20:26:37.034Z,36.75
2023-05-12T20:29:39.730Z,36.77
2023-05-12T20:32:43.712Z,36.79
2023-05-12T20:35:46.598Z,37.16
2023-05-12T20:38:49.094Z,37.06
2023-05-12T20:41:51.658Z,37.00
2023-05-12T20:44:54.352Z,37.06
2023-05-12T20:47:57.169Z,37.04
2023-05-12T20:51:09.285Z,37.48
2023-05-12T20:54:11.907Z,37.32
2023-05-12T20:57:14.492Z,37.40
2023-05-12T21:00:18.461Z,37.40
2023-05-12T21:03:22.880Z,37.55
2023-05-12T21:06:25.779Z,37.61
2023-05-12T21:09:28.656Z,37.71
2023-05-12T21:12:31.885Z,37.87
2023-05-12T21:15:34.795Z,37.81
2023-05-12T21:18:37.496Z,37.70
2023-05-12T21:21:40.081Z,38.00
2023-05-12T21:24:43.131Z,37.98
2023-05-12T21:27:47.521Z,38.00
2023-05-12T21:30:50.219Z,38.14
2023-05-12T21:33:52.783Z,38.31
2023-05-12T21:36:56.552Z,38.37
2023-05-12T21:39:59.243Z,38.36
2023-05-12T21:43:02.029Z,38.25
2023-05-12T21:46:05.804Z,38.20
2023-05-12T21:49:08.771Z,38.41
2023-05-12T21:52:12.366Z,38.56
2023-05-12T21:55:15.326Z,38.45
2023-05-12T21:58:18.427Z,38.47
2023-05-12T22:01:21.110Z,38.34
2023-05-12T22:04:23.640Z,38.57
2023-05-12T22:07:26.424Z,38.77
2023-05-12T22:10:31.700Z,38.54
2023-05-12T22:13:34.432Z,38.90
2023-05-12T22:16:41.808Z,38.99
2023-05-12T22:19:45.156Z,38.95
2023-05-12T22:22:47.699Z,38.65
2023-05-12T22:25:50.759Z,39.19
2023-05-12T22:28:53.349Z,38.92
2023-05-12T22:31:55.869Z,38.92
2023-05-12T22:34:58.785Z,39.03
2023-05-12T22:38:01.554Z,39.18
2023-05-12T22:41:04.173Z,39.08
2023-05-12T22:44:06.779Z,39.14
2023-05-12T22:51:07.676Z,39.31
2023-05-12T22:54:10.170Z,39.39
2023-05-12T22:57:13.792Z,39.49
2023-05-12T23:00:16.588Z,39.59
2023-05-12T23:03:19.171Z,39.66
2023-05-12T23:06:21.712Z,39.70
2023-05-12T23:09:24.281Z,39.72
2023-05-12T23:12:27.048Z,39.72
2023-05-12T23:15:29.721Z,40.12
2023-05-12T23:18:32.718Z,39.81
2023-05-12T23:21:37.395Z,39.81
2023-05-12T23:24:40.896Z,40.11
2023-05-12T23:27:43.459Z,40.10
2023-05-12T23:30:46.331Z,40.23
2023-05-12T23:33:49.055Z,40.28
2023-05-12T23:36:51.748Z,40.06
2023-05-12T23:39:56.470Z,39.96
2023-05-12T23:42:59.430Z,40.15
2023-05-12T23:46:02.229Z,40.29
2023-05-12T23:49:04.908Z,40.28
2023-05-12T23:52:07.849Z,40.38
2023-05-12T23:55:11.860Z,40.42
2023-05-12T23:58:14.549Z,40.32
